Time;durP1;ratioP1;P1;durP2;ratioP2;P2;SDS_P1;SDS_P2;PMS_P1;PMS_P2;Temp;Humidity;BMP_temperature;BMP_pressure;BME280_temperature;BME280_humidity;BME280_pressure;Samples;Min_cycle;Max_cycle;Signal;HPM_P1;HPM_P2
2022/10/19 00:01:20;;;;;;;9.67;6.90;;;13.50;99.90;;;;;;4858953;29;20220;-87
2022/10/19 00:03:48;;;;;;;13.63;8.20;;;13.50;99.90;;;;;;4858889;29;20252;-87
2022/10/19 00:06:25;;;;;;;12.33;8.70;;;13.60;99.90;;;;;;4858941;29;20185;-87
2022/10/19 00:09:02;;;;;;;11.83;8.80;;;13.60;99.90;;;;;;4858621;29;20283;-87
2022/10/19 00:11:29;;;;;;;13.07;7.43;;;13.60;99.90;;;;;;4858682;29;20212;-87
2022/10/19 00:13:56;;;;;;;12.17;8.53;;;13.60;99.90;;;;;;4858668;29;20181;-87
2022/10/19 00:16:24;;;;;;;11.20;8.23;;;13.70;99.90;;;;;;4858312;29;20192;-87
2022/10/19 00:18:50;;;;;;;17.70;7.90;;;13.70;99.90;;;;;;4858376;29;20217;-86
2022/10/19 00:21:17;;;;;;;13.23;8.23;;;13.70;99.90;;;;;;4858627;29;20534;-87
2022/10/19 00:23:44;;;;;;;15.00;8.60;;;13.70;99.90;;;;;;4858571;29;20264;-87
2022/10/19 00:26:11;;;;;;;19.20;9.83;;;13.80;99.90;;;;;;4862037;29;20188;-87
2022/10/19 00:28:37;;;;;;;13.93;8.10;;;13.80;99.90;;;;;;4861584;29;20192;-87
2022/10/19 00:31:08;;;;;;;11.57;8.10;;;13.80;99.90;;;;;;4862261;29;20197;-87
2022/10/19 00:33:34;;;;;;;9.67;7.20;;;13.80;99.90;;;;;;4868987;29;20291;-87
2022/10/19 00:36:01;;;;;;;9.30;7.17;;;13.70;99.90;;;;;;4865047;29;20191;-87
2022/10/19 00:38:27;;;;;;;15.20;8.13;;;13.70;99.90;;;;;;4864719;29;20211;-87
2022/10/19 00:40:53;;;;;;;9.30;7.93;;;13.80;99.90;;;;;;4864977;29;20184;-87
2022/10/19 00:43:23;;;;;;;8.70;7.80;;;13.80;99.90;;;;;;4864751;29;20196;-87
2022/10/19 00:45:49;;;;;;;9.60;7.63;;;13.80;99.90;;;;;;4880171;29;20267;-87
2022/10/19 00:48:25;;;;;;;12.33;9.00;;;13.90;99.90;;;;;;4864753;29;20180;-87
2022/10/19 00:50:55;;;;;;;15.90;8.70;;;14.00;99.90;;;;;;4864929;29;20217;-87
2022/10/19 00:53:23;;;;;;;12.67;9.77;;;14.00;99.90;;;;;;4864563;29;20227;-87
2022/10/19 00:55:49;;;;;;;13.17;10.03;;;14.00;99.90;;;;;;4864465;29;20184;-87
2022/10/19 00:58:15;;;;;;;15.80;10.17;;;14.00;99.90;;;;;;4864342;29;20267;-87
2022/10/19 01:00:41;;;;;;;12.23;9.57;;;14.00;99.90;;;;;;4864803;29;20270;-87
2022/10/19 01:03:10;;;;;;;12.60;10.27;;;14.00;99.90;;;;;;4864238;29;20356;-87
2022/10/19 01:05:37;;;;;;;10.93;9.23;;;14.00;99.90;;;;;;4864600;29;20184;-87
2022/10/19 01:08:04;;;;;;;15.97;10.17;;;14.10;99.90;;;;;;4864155;29;20195;-87
2022/10/19 01:10:51;;;;;;;13.33;9.60;;;14.10;99.90;;;;;;4864273;29;20195;-87
2022/10/19 01:13:31;;;;;;;15.07;9.90;;;14.10;99.90;;;;;;4864213;29;20256;-86
2022/10/19 01:16:24;;;;;;;13.47;9.80;;;14.20;99.90;;;;;;4864437;29;20191;-87
2022/10/19 01:19:17;;;;;;;13.53;10.53;;;14.20;99.90;;;;;;4849677;29;20208;-87
2022/10/19 01:22:34;;;;;;;31.97;10.93;;;14.20;99.90;;;;;;4836375;29;20208;-87
2022/10/19 01:25:34;;;;;;;22.90;10.43;;;14.10;99.90;;;;;;4826188;29;20182;-87
2022/10/19 01:28:08;;;;;;;17.67;10.27;;;14.10;99.90;;;;;;4826212;29;20249;-87
2022/10/19 01:30:53;;;;;;;13.90;9.43;;;14.00;99.90;;;;;;4839601;29;20235;-87
2022/10/19 01:33:57;;;;;;;41.53;10.70;;;13.90;99.90;;;;;;4868663;29;20207;-87
2022/10/19 01:36:38;;;;;;;18.10;11.27;;;13.90;99.90;;;;;;4857682;29;20191;-87
2022/10/19 01:39:34;;;;;;;29.77;12.53;;;13.90;99.90;;;;;;4863936;29;20207;-87
2022/10/19 01:42:17;;;;;;;36.43;12.90;;;14.00;99.90;;;;;;4854567;29;20205;-87
2022/10/19 01:44:59;;;;;;;21.90;12.07;;;14.00;99.90;;;;;;4857622;29;20182;-87
2022/10/19 01:47:35;;;;;;;20.17;12.20;;;14.00;99.90;;;;;;4857559;29;20185;-87
2022/10/19 01:50:10;;;;;;;19.90;12.47;;;13.90;99.90;;;;;;4858944;29;20188;-87
2022/10/19 01:52:39;;;;;;;35.23;14.37;;;13.90;99.90;;;;;;4860326;29;20263;-87
2022/10/19 01:55:08;;;;;;;58.73;14.53;;;13.90;99.90;;;;;;4860329;29;20271;-87
2022/10/19 01:57:39;;;;;;;20.70;12.07;;;13.90;99.90;;;;;;4860186;29;20192;-87
2022/10/19 02:00:07;;;;;;;26.07;12.53;;;13.90;99.90;;;;;;4860399;29;20204;-87
2022/10/19 02:02:42;;;;;;;18.57;12.00;;;13.90;99.90;;;;;;4860385;29;20256;-87
2022/10/19 02:05:10;;;;;;;21.77;10.90;;;13.90;99.90;;;;;;4860292;29;20199;-87
2022/10/19 02:07:39;;;;;;;32.10;11.03;;;13.90;99.90;;;;;;4867260;29;20184;-87
2022/10/19 02:10:06;;;;;;;17.23;10.23;;;13.80;99.90;;;;;;4878757;29;20176;-87
2022/10/19 02:12:34;;;;;;;85.83;12.97;;;13.80;99.90;;;;;;4860105;29;20220;-87
2022/10/19 02:15:06;;;;;;;66.30;12.60;;;13.80;99.90;;;;;;4860182;29;20188;-87
2022/10/19 02:17:38;;;;;;;20.60;10.90;;;13.80;99.90;;;;;;4860037;29;20639;-87
2022/10/19 02:20:04;;;;;;;21.50;9.50;;;13.80;99.90;;;;;;4859909;29;20224;-87
2022/10/19 02:22:30;;;;;;;28.50;10.83;;;13.70;99.90;;;;;;4860244;29;20209;-87
2022/10/19 02:24:57;;;;;;;64.10;12.87;;;13.60;99.90;;;;;;4859990;29;20267;-87
2022/10/19 02:27:23;;;;;;;31.57;11.40;;;13.60;99.90;;;;;;4859491;29;20189;-87
2022/10/19 02:29:55;;;;;;;59.97;12.53;;;13.60;99.90;;;;;;4859509;29;20188;-87
2022/10/19 02:32:21;;;;;;;24.73;10.63;;;13.70;99.90;;;;;;4859751;29;20677;-87
2022/10/19 02:34:47;;;;;;;25.97;11.90;;;13.70;99.90;;;;;;4859741;29;20199;-87
2022/10/19 02:37:13;;;;;;;42.30;11.80;;;13.70;99.90;;;;;;4859801;29;20192;-87
2022/10/19 02:39:39;;;;;;;42.77;12.60;;;13.70;99.90;;;;;;4859815;29;20361;-87
2022/10/19 02:42:19;;;;;;;28.47;10.63;;;13.70;99.90;;;;;;4859121;29;20295;-87
2022/10/19 02:44:57;;;;;;;51.87;13.10;;;13.70;99.90;;;;;;4859694;29;20183;-87
2022/10/19 02:47:35;;;;;;;15.47;10.10;;;13.70;99.90;;;;;;4858880;29;20215;-87
2022/10/19 02:50:05;;;;;;;19.20;10.67;;;13.70;99.90;;;;;;4859585;29;20182;-87
2022/10/19 02:52:31;;;;;;;20.67;10.30;;;13.70;99.90;;;;;;4859836;29;20291;-87
2022/10/19 02:54:57;;;;;;;21.40;10.90;;;13.60;99.90;;;;;;4859302;29;20196;-87
2022/10/19 02:57:24;;;;;;;17.17;10.30;;;13.70;99.90;;;;;;4859514;29;20194;-87
2022/10/19 02:59:51;;;;;;;13.93;10.67;;;13.70;99.90;;;;;;4859480;29;20216;-87
2022/10/19 03:02:19;;;;;;;13.57;10.10;;;13.70;99.90;;;;;;4859418;29;20211;-87
2022/10/19 03:04:45;;;;;;;19.77;10.23;;;13.70;99.90;;;;;;4859556;29;20227;-87
2022/10/19 03:07:13;;;;;;;23.40;10.87;;;13.70;99.90;;;;;;4858884;29;20225;-87
2022/10/19 03:09:43;;;;;;;21.33;10.10;;;13.70;99.90;;;;;;4859286;29;20189;-87
2022/10/19 03:12:09;;;;;;;14.87;9.23;;;13.60;99.90;;;;;;4860359;29;20271;-87
2022/10/19 03:14:36;;;;;;;32.00;11.60;;;13.60;99.90;;;;;;4859368;29;20204;-87
2022/10/19 03:17:02;;;;;;;18.40;10.23;;;13.60;99.90;;;;;;4858905;29;20189;-87
2022/10/19 03:19:29;;;;;;;14.83;9.70;;;13.60;99.90;;;;;;4858960;29;20272;-87
2022/10/19 03:21:55;;;;;;;15.13;10.33;;;13.60;99.90;;;;;;4859417;29;20218;-87
2022/10/19 03:24:22;;;;;;;22.00;10.90;;;13.60;99.90;;;;;;4859092;29;20185;-87
2022/10/19 03:26:49;;;;;;;17.37;10.00;;;13.50;99.90;;;;;;4843384;29;20212;-87
2022/10/19 03:29:15;;;;;;;33.90;11.60;;;13.60;99.90;;;;;;4859155;29;20169;-87
2022/10/19 03:31:41;;;;;;;21.27;10.67;;;13.60;99.90;;;;;;4859342;29;20286;-87
2022/10/19 03:34:07;;;;;;;24.00;10.77;;;13.60;99.90;;;;;;4859368;29;20207;-87
2022/10/19 03:36:37;;;;;;;15.60;10.33;;;13.60;99.90;;;;;;4862229;29;20187;-87
2022/10/19 03:39:09;;;;;;;18.20;10.23;;;13.60;99.90;;;;;;4861920;29;20219;-87
2022/10/19 03:41:36;;;;;;;22.27;11.80;;;13.60;99.90;;;;;;4862102;29;20165;-87
2022/10/19 03:44:15;;;;;;;18.87;10.73;;;13.70;99.90;;;;;;4845513;29;20188;-89
2022/10/19 03:46:51;;;;;;;20.10;11.77;;;13.70;99.90;;;;;;4842373;29;20272;-89
2022/10/19 03:49:26;;;;;;;15.80;10.13;;;13.70;99.90;;;;;;4858196;29;20196;-89
2022/10/19 03:52:12;;;;;;;15.80;10.40;;;13.60;99.90;;;;;;4857760;29;20212;-89
2022/10/19 03:54:53;;;;;;;15.30;10.50;;;13.60;99.90;;;;;;4858997;29;20192;-89
2022/10/19 03:57:20;;;;;;;14.70;9.83;;;13.70;99.90;;;;;;4858349;29;20272;-89
2022/10/19 03:59:47;;;;;;;17.33;11.00;;;13.70;99.90;;;;;;4860296;29;20216;-88
2022/10/19 04:02:15;;;;;;;16.13;10.77;;;13.70;99.90;;;;;;4861217;29;20208;-88
2022/10/19 04:04:41;;;;;;;17.73;11.67;;;13.70;99.90;;;;;;4862427;29;20283;-88
2022/10/19 04:07:08;;;;;;;17.27;10.77;;;13.70;99.90;;;;;;4862195;29;20217;-87
2022/10/19 04:09:38;;;;;;;16.43;11.47;;;13.70;99.90;;;;;;4863841;29;20259;-88
2022/10/19 04:12:15;;;;;;;16.53;10.90;;;13.70;99.90;;;;;;4847573;29;20212;-88
2022/10/19 04:14:41;;;;;;;15.67;10.33;;;13.70;99.90;;;;;;4848361;29;20208;-87
2022/10/19 04:17:08;;;;;;;17.47;10.70;;;13.70;99.90;;;;;;4863116;29;20192;-87
2022/10/19 04:19:35;;;;;;;18.10;11.57;;;13.70;99.90;;;;;;4846578;29;20239;-87
2022/10/19 04:22:01;;;;;;;17.10;10.77;;;13.70;99.90;;;;;;4846489;29;20209;-88
2022/10/19 04:24:28;;;;;;;16.80;10.80;;;13.70;99.90;;;;;;4846786;29;20184;-88
2022/10/19 04:26:55;;;;;;;19.63;11.17;;;13.70;99.90;;;;;;4847021;29;20193;-87
2022/10/19 04:29:23;;;;;;;16.63;10.90;;;13.70;99.90;;;;;;4846872;29;20192;-87
2022/10/19 04:31:50;;;;;;;17.60;11.43;;;13.70;99.90;;;;;;4843783;29;20208;-87
2022/10/19 04:34:17;;;;;;;18.93;11.10;;;13.70;99.90;;;;;;4859254;29;20191;-88
2022/10/19 04:36:43;;;;;;;20.20;12.87;;;13.70;99.90;;;;;;4865185;29;20192;-87
2022/10/19 04:39:09;;;;;;;20.53;12.63;;;13.70;99.90;;;;;;4856602;29;20208;-88
2022/10/19 04:41:37;;;;;;;19.57;12.10;;;13.80;99.90;;;;;;4858908;29;20192;-88
2022/10/19 04:44:07;;;;;;;20.77;12.47;;;13.80;99.90;;;;;;4858754;29;20193;-87
2022/10/19 04:46:34;;;;;;;21.03;12.67;;;13.70;99.90;;;;;;4844904;29;20190;-88
2022/10/19 04:49:00;;;;;;;19.47;11.50;;;13.80;99.90;;;;;;4852820;29;20192;-88
2022/10/19 04:51:26;;;;;;;18.43;11.67;;;13.80;99.90;;;;;;4865196;29;20216;-90
2022/10/19 04:53:54;;;;;;;21.47;14.47;;;13.80;99.90;;;;;;4864911;29;20188;-89
2022/10/19 04:56:28;;;;;;;20.03;12.83;;;13.80;99.90;;;;;;4847466;29;20234;-90
2022/10/19 04:58:58;;;;;;;17.77;11.63;;;13.80;99.90;;;;;;4844285;29;20277;-89
2022/10/19 05:01:26;;;;;;;18.53;11.83;;;13.80;99.90;;;;;;4855839;29;20184;-90
2022/10/19 05:03:57;;;;;;;18.00;11.80;;;13.80;99.90;;;;;;4865099;29;20184;-90
2022/10/19 05:06:23;;;;;;;20.63;12.23;;;13.80;99.90;;;;;;4864541;29;20313;-90
2022/10/19 05:08:49;;;;;;;20.77;11.90;;;13.90;99.90;;;;;;4853963;29;20188;-90
2022/10/19 05:11:16;;;;;;;17.77;11.33;;;13.90;99.90;;;;;;4863090;29;20184;-89
2022/10/19 05:13:43;;;;;;;18.00;11.87;;;13.80;99.90;;;;;;4865003;29;20208;-89
2022/10/19 05:16:14;;;;;;;19.33;11.57;;;13.80;99.90;;;;;;4880145;29;20624;-89
2022/10/19 05:18:41;;;;;;;23.30;12.80;;;13.80;99.90;;;;;;4847802;29;20297;-88
2022/10/19 05:21:11;;;;;;;17.70;10.97;;;13.80;99.90;;;;;;4842855;29;20186;-88
2022/10/19 05:23:38;;;;;;;18.10;10.60;;;13.80;99.90;;;;;;4864801;29;20203;-88
2022/10/19 05:26:07;;;;;;;18.40;12.23;;;13.80;99.90;;;;;;4864302;29;20184;-89
2022/10/19 05:28:34;;;;;;;17.70;11.40;;;13.80;99.90;;;;;;4870287;29;20287;-89
2022/10/19 05:31:14;;;;;;;16.10;10.33;;;13.80;99.90;;;;;;4861496;29;20213;-88
2022/10/19 05:33:41;;;;;;;14.77;10.07;;;13.80;99.90;;;;;;4861036;29;20220;-89
2022/10/19 05:36:31;;;;;;;16.73;10.93;;;13.80;99.90;;;;;;4861038;29;20181;-89
2022/10/19 05:38:57;;;;;;;18.13;10.77;;;13.80;99.90;;;;;;4851399;29;20219;-88
2022/10/19 05:41:24;;;;;;;16.30;10.47;;;13.90;99.90;;;;;;4845824;29;20315;-89
2022/10/19 05:43:59;;;;;;;14.27;10.07;;;13.90;99.90;;;;;;4863992;29;20207;-89
2022/10/19 05:46:27;;;;;;;18.53;10.70;;;13.90;99.90;;;;;;4861194;29;20187;-89
2022/10/19 05:48:55;;;;;;;16.90;12.07;;;14.00;99.90;;;;;;4867403;29;20196;-89
2022/10/19 05:51:22;;;;;;;17.73;11.90;;;14.00;99.90;;;;;;4860990;29;20180;-89
2022/10/19 05:53:48;;;;;;;15.23;10.57;;;13.90;99.90;;;;;;4859636;29;20215;-89
2022/10/19 05:56:37;;;;;;;15.20;10.60;;;13.90;99.90;;;;;;4859656;29;20261;-89
2022/10/19 05:59:05;;;;;;;16.20;10.80;;;13.90;99.90;;;;;;4845133;29;20284;-89
2022/10/19 06:01:32;;;;;;;19.00;10.10;;;13.90;99.90;;;;;;4876010;29;20229;-89
2022/10/19 06:04:13;;;;;;;16.00;10.50;;;13.90;99.90;;;;;;4863999;29;20196;-89
2022/10/19 06:06:41;;;;;;;15.90;10.83;;;13.90;99.90;;;;;;4863612;29;20199;-89
2022/10/19 06:09:08;;;;;;;16.03;10.53;;;13.90;99.90;;;;;;4863603;29;20215;-89
2022/10/19 06:11:40;;;;;;;14.83;10.20;;;14.00;99.90;;;;;;4863200;29;20181;-89
2022/10/19 06:14:10;;;;;;;13.50;9.33;;;14.00;99.90;;;;;;4863681;29;20190;-89
2022/10/19 06:16:37;;;;;;;14.10;10.43;;;13.90;99.90;;;;;;4863243;29;20626;-89
2022/10/19 06:19:14;;;;;;;17.57;10.43;;;13.90;99.90;;;;;;4863422;29;20212;-89
2022/10/19 06:21:44;;;;;;;18.70;10.43;;;14.00;99.90;;;;;;4847315;29;20248;-89
2022/10/19 06:24:10;;;;;;;19.97;10.77;;;14.00;99.90;;;;;;4860397;29;20197;-88
2022/10/19 06:26:36;;;;;;;20.27;11.70;;;14.00;99.90;;;;;;4860155;29;20185;-88
2022/10/19 06:29:03;;;;;;;19.17;11.73;;;14.00;99.90;;;;;;4860149;29;20185;-88
2022/10/19 06:31:33;;;;;;;18.83;11.17;;;14.00;99.90;;;;;;4859596;29;20185;-88
2022/10/19 06:33:59;;;;;;;24.13;11.97;;;13.90;99.90;;;;;;4858636;29;20207;-89
2022/10/19 06:36:28;;;;;;;25.17;13.73;;;13.90;99.90;;;;;;4860125;29;20188;-89
2022/10/19 06:38:55;;;;;;;29.27;15.00;;;13.80;99.90;;;;;;4859730;29;20224;-88
2022/10/19 06:41:21;;;;;;;23.53;13.30;;;13.80;99.90;;;;;;4860138;29;20195;-89
2022/10/19 06:43:51;;;;;;;28.03;14.40;;;13.80;99.90;;;;;;4860044;29;20188;-89
2022/10/19 06:46:20;;;;;;;27.67;13.90;;;13.90;99.90;;;;;;4859786;29;20185;-89
2022/10/19 06:48:51;;;;;;;28.70;14.40;;;13.90;99.90;;;;;;4859480;29;20184;-88
2022/10/19 06:51:17;;;;;;;27.03;14.37;;;13.90;99.90;;;;;;4859588;29;20197;-89
2022/10/19 06:53:43;;;;;;;31.40;14.17;;;14.00;99.90;;;;;;4859538;29;20737;-88
2022/10/19 06:56:10;;;;;;;27.03;13.60;;;14.00;99.90;;;;;;4860824;29;20173;-88
2022/10/19 06:58:37;;;;;;;24.63;11.70;;;14.00;99.90;;;;;;4857360;29;20291;-88
2022/10/19 07:01:06;;;;;;;28.33;13.20;;;14.00;99.90;;;;;;4844255;29;20184;-88
2022/10/19 07:03:32;;;;;;;27.93;13.83;;;14.00;99.90;;;;;;4844020;29;20207;-88
2022/10/19 07:06:00;;;;;;;25.97;13.10;;;14.10;99.90;;;;;;4844168;29;20185;-88
2022/10/19 07:08:28;;;;;;;29.20;14.10;;;14.10;99.90;;;;;;4843873;29;20276;-89
2022/10/19 07:10:57;;;;;;;27.73;13.17;;;14.10;99.90;;;;;;4844435;29;20185;-89
2022/10/19 07:13:23;;;;;;;31.50;13.70;;;14.10;99.90;;;;;;4843862;29;20208;-89
2022/10/19 07:15:55;;;;;;;29.07;14.37;;;14.10;99.90;;;;;;4859536;29;20181;-88
2022/10/19 07:18:21;;;;;;;31.17;13.50;;;14.10;99.90;;;;;;4844220;29;20177;-88
2022/10/19 07:20:58;;;;;;;23.83;13.13;;;14.10;99.90;;;;;;4843910;29;20185;-88
2022/10/19 07:23:25;;;;;;;33.03;14.77;;;14.20;99.90;;;;;;4843630;29;20218;-89
2022/10/19 07:25:54;;;;;;;31.20;14.87;;;14.20;99.90;;;;;;4843803;29;20195;-88
2022/10/19 07:28:20;;;;;;;30.87;14.37;;;14.10;99.90;;;;;;4843945;29;20181;-88
2022/10/19 07:30:47;;;;;;;30.43;15.87;;;14.00;99.90;;;;;;4843983;29;20212;-88
2022/10/19 07:33:13;;;;;;;26.60;13.80;;;14.00;99.90;;;;;;4843847;29;20212;-88
2022/10/19 07:35:39;;;;;;;30.87;14.10;;;14.00;99.90;;;;;;4843760;29;20320;-89
2022/10/19 07:38:04;;;;;;;27.90;14.40;;;14.00;99.90;;;;;;4843759;29;20368;-89
2022/10/19 07:40:30;;;;;;;23.17;12.93;;;14.10;99.90;;;;;;4843647;29;20231;-88
2022/10/19 07:42:56;;;;;;;31.30;15.07;;;14.10;99.90;;;;;;4843704;29;20248;-87
2022/10/19 07:45:22;;;;;;;27.77;14.57;;;14.00;99.90;;;;;;4843009;29;20203;-88
2022/10/19 07:47:48;;;;;;;26.13;14.23;;;14.00;99.90;;;;;;4846100;29;20193;-89
2022/10/19 07:50:24;;;;;;;27.87;14.37;;;14.10;99.90;;;;;;4840361;29;20189;-89
2022/10/19 07:52:54;;;;;;;26.07;14.23;;;14.10;99.90;;;;;;4845243;29;20212;-88
2022/10/19 07:55:20;;;;;;;27.23;14.60;;;14.10;99.90;;;;;;4838393;29;20200;-88
2022/10/19 07:57:47;;;;;;;26.07;15.40;;;14.10;99.90;;;;;;4843198;29;20189;-89
2022/10/19 08:00:14;;;;;;;28.30;14.73;;;14.10;99.90;;;;;;4843871;29;20220;-88
2022/10/19 08:02:40;;;;;;;23.47;13.33;;;14.20;99.90;;;;;;4858471;29;20220;-88
2022/10/19 08:05:06;;;;;;;24.57;14.17;;;14.20;99.90;;;;;;4858823;29;20213;-89
2022/10/19 08:07:32;;;;;;;24.57;13.67;;;14.20;99.90;;;;;;4858393;29;20187;-89
2022/10/19 08:09:58;;;;;;;27.33;13.37;;;14.30;99.90;;;;;;4842958;29;20223;-88
2022/10/19 08:12:24;;;;;;;29.73;14.83;;;14.30;99.90;;;;;;4843591;29;20244;-89
2022/10/19 08:14:51;;;;;;;23.63;13.70;;;14.30;99.90;;;;;;4843585;29;20189;-89
2022/10/19 08:17:17;;;;;;;25.73;14.63;;;14.30;99.90;;;;;;4843395;29;20181;-89
2022/10/19 08:19:44;;;;;;;24.27;13.37;;;14.40;99.90;;;;;;4843507;29;20217;-89
2022/10/19 08:22:24;;;;;;;22.47;13.23;;;14.40;99.90;;;;;;4874580;29;20251;-89
2022/10/19 08:24:50;;;;;;;20.17;12.37;;;14.50;99.90;;;;;;4844185;29;20185;-89
2022/10/19 08:27:16;;;;;;;25.10;13.60;;;14.50;99.90;;;;;;4843803;29;20185;-89
2022/10/19 08:29:42;;;;;;;22.37;13.80;;;14.60;99.90;;;;;;4843901;29;20196;-89
2022/10/19 08:32:08;;;;;;;23.23;13.07;;;14.60;99.90;;;;;;4854551;29;20220;-89
2022/10/19 08:34:33;;;;;;;21.03;12.67;;;14.60;99.90;;;;;;4843931;29;20280;-89
2022/10/19 08:37:01;;;;;;;15.67;10.53;;;14.70;99.90;;;;;;4843907;29;20192;-89
2022/10/19 08:39:27;;;;;;;20.13;11.97;;;14.70;99.90;;;;;;4843610;29;20223;-88
2022/10/19 08:42:05;;;;;;;21.17;13.23;;;14.70;99.90;;;;;;4843491;29;20201;-88
2022/10/19 08:44:37;;;;;;;19.33;11.67;;;14.70;99.90;;;;;;4874832;29;20188;-88
2022/10/19 08:47:18;;;;;;;19.30;11.77;;;14.70;99.90;;;;;;4844690;29;20200;-88
2022/10/19 08:49:45;;;;;;;17.03;10.93;;;14.70;99.90;;;;;;4846496;29;20197;-89
2022/10/19 08:52:11;;;;;;;19.33;12.40;;;14.70;99.90;;;;;;4846419;29;20259;-89
2022/10/19 08:54:53;;;;;;;16.37;10.57;;;14.70;99.90;;;;;;4846485;29;20258;-89
2022/10/19 08:57:56;;;;;;;16.77;10.97;;;14.70;99.90;;;;;;4846198;29;20193;-88
2022/10/19 09:00:44;;;;;;;13.30;10.13;;;14.80;99.90;;;;;;4846279;29;20228;-88
2022/10/19 09:03:46;;;;;;;13.37;10.40;;;14.90;99.90;;;;;;4846243;29;20211;-88
2022/10/19 09:06:22;;;;;;;12.87;9.50;;;15.00;99.90;;;;;;4846276;29;20236;-88
2022/10/19 09:08:50;;;;;;;14.30;10.00;;;15.00;99.90;;;;;;4853349;29;20193;-88
2022/10/19 09:11:31;;;;;;;11.97;9.47;;;15.10;99.90;;;;;;4827555;29;20196;-88
2022/10/19 09:14:08;;;;;;;10.53;8.20;;;15.10;99.90;;;;;;4827865;29;20623;-88
2022/10/19 09:16:34;;;;;;;15.23;10.80;;;15.20;99.90;;;;;;4828121;29;20185;-88
2022/10/19 09:19:01;;;;;;;14.83;10.80;;;15.20;99.90;;;;;;4858607;29;20224;-88
2022/10/19 09:22:01;;;;;;;15.50;10.30;;;15.20;99.90;;;;;;4827985;29;20193;-88
2022/10/19 09:24:30;;;;;;;12.70;9.67;;;15.30;99.90;;;;;;4842838;29;20213;-88
2022/10/19 09:26:59;;;;;;;15.57;10.27;;;15.30;99.90;;;;;;4827621;29;20221;-89
2022/10/19 09:29:43;;;;;;;13.33;9.20;;;15.30;99.90;;;;;;4827770;29;20317;-89
2022/10/19 09:32:18;;;;;;;11.37;9.20;;;15.40;99.90;;;;;;4827660;29;20209;-89
2022/10/19 09:34:49;;;;;;;13.50;8.07;;;15.40;99.90;;;;;;4827529;29;20196;-88
2022/10/19 09:37:15;;;;;;;9.63;8.07;;;15.40;99.90;;;;;;4827643;29;20189;-89
2022/10/19 09:39:41;;;;;;;9.13;7.43;;;15.40;99.90;;;;;;4827524;29;20249;-88
2022/10/19 09:42:39;;;;;;;12.07;7.87;;;15.50;99.90;;;;;;4858501;29;20243;-88
2022/10/19 09:45:42;;;;;;;8.63;7.60;;;15.50;99.90;;;;;;4832310;29;20186;-88
2022/10/19 09:48:37;;;;;;;10.63;7.20;;;15.60;99.90;;;;;;4841555;29;20262;-89
2022/10/19 09:51:10;;;;;;;6.23;5.07;;;15.70;99.90;;;;;;4857399;29;20193;-89
2022/10/19 09:53:37;;;;;;;8.03;5.83;;;15.70;99.90;;;;;;4857871;29;20213;-89
2022/10/19 09:56:06;;;;;;;5.83;4.70;;;15.80;99.90;;;;;;4858435;29;20188;-89
2022/10/19 09:58:33;;;;;;;7.70;6.00;;;15.80;99.90;;;;;;4857125;29;20204;-88
2022/10/19 10:01:01;;;;;;;9.37;6.17;;;15.90;99.90;;;;;;4856773;29;20189;-89
2022/10/19 10:03:42;;;;;;;5.50;4.70;;;16.00;99.90;;;;;;4857526;29;20235;-89
2022/10/19 10:06:12;;;;;;;6.07;5.20;;;16.00;99.90;;;;;;4856639;29;20192;-89
2022/10/19 10:08:47;;;;;;;5.55;4.95;;;16.00;99.90;;;;;;4860619;29;20225;-89
2022/10/19 10:11:34;;;;;;;7.55;5.15;;;16.10;99.90;;;;;;4860846;29;20192;-88
2022/10/19 10:14:15;;;;;;;5.53;4.25;;;16.20;99.90;;;;;;4860505;29;20296;-88
2022/10/19 10:16:41;;;;;;;7.70;5.37;;;16.20;99.90;;;;;;4860649;29;20188;-89
2022/10/19 10:19:12;;;;;;;5.03;4.27;;;16.10;99.90;;;;;;4860763;29;20212;-89
2022/10/19 10:21:56;;;;;;;5.23;4.17;;;16.20;99.90;;;;;;4860600;29;20181;-88
2022/10/19 10:24:33;;;;;;;5.03;4.43;;;16.20;99.90;;;;;;4860492;29;20188;-89
2022/10/19 10:27:02;;;;;;;6.50;4.40;;;16.20;99.90;;;;;;4860417;29;20255;-89
2022/10/19 10:29:31;;;;;;;4.53;4.00;;;16.30;99.90;;;;;;4860274;29;20216;-89
2022/10/19 10:32:19;;;;;;;3.90;3.30;;;16.20;99.90;;;;;;4860291;29;20201;-74
2022/10/19 10:34:59;;;;;;;5.70;3.63;;;16.30;99.90;;;;;;4860833;29;20814;-83
2022/10/19 10:37:41;;;;;;;4.20;3.70;;;16.40;99.90;;;;;;4873161;29;20215;-85
2022/10/19 10:40:30;;;;;;;4.97;3.73;;;16.40;99.90;;;;;;4858927;29;20235;-85
2022/10/19 10:43:33;;;;;;;4.50;3.63;;;16.40;99.90;;;;;;4859806;29;20217;-89
2022/10/19 10:46:13;;;;;;;5.70;3.33;;;16.50;99.90;;;;;;4859828;29;20260;-89
2022/10/19 10:48:52;;;;;;;4.60;3.75;;;16.60;99.90;;;;;;4859744;29;20181;-89
2022/10/19 10:51:32;;;;;;;3.92;3.53;;;16.60;99.90;;;;;;4859981;29;20169;-89
2022/10/19 10:54:21;;;;;;;4.40;3.38;;;16.60;99.90;;;;;;4859816;29;20279;-88
2022/10/19 10:57:10;;;;;;;3.67;2.90;;;16.70;99.90;;;;;;4859647;29;20228;-89
2022/10/19 11:00:27;;;;;;;3.95;3.20;;;16.70;99.90;;;;;;4859096;29;20215;-88
2022/10/19 11:03:35;;;;;;;3.45;3.10;;;16.70;99.90;;;;;;4857616;29;20213;-88
2022/10/19 11:06:01;;;;;;;4.32;3.00;;;16.80;99.90;;;;;;4828168;29;20239;-88
2022/10/19 11:08:49;;;;;;;3.35;2.70;;;17.00;99.90;;;;;;4836238;29;20208;-88
2022/10/19 11:11:33;;;;;;;3.42;2.90;;;17.10;99.90;;;;;;4840791;29;20220;-88
2022/10/19 11:14:40;;;;;;;3.30;3.00;;;17.40;99.90;;;;;;4841148;29;20272;-88
2022/10/19 11:17:16;;;;;;;3.80;3.40;;;17.50;99.90;;;;;;4839970;29;20216;-88
2022/10/19 11:19:44;;;;;;;3.60;3.15;;;17.80;99.90;;;;;;4862556;29;20227;-89
2022/10/19 11:22:19;;;;;;;4.78;3.00;;;18.00;99.90;;;;;;4862480;29;20204;-89
2022/10/19 11:25:21;;;;;;;4.85;3.55;;;18.20;99.90;;;;;;4877538;29;20236;-89
2022/10/19 11:28:28;;;;;;;5.22;3.70;;;18.30;99.90;;;;;;4861823;29;20175;-88
2022/10/19 11:31:03;;;;;;;4.78;3.60;;;18.30;99.90;;;;;;4842844;29;20211;-88
2022/10/19 11:34:02;;;;;;;7.35;4.50;;;18.40;99.90;;;;;;4827447;29;20301;-88
2022/10/19 11:36:37;;;;;;;8.35;4.53;;;18.40;99.90;;;;;;4864183;29;20199;-88
2022/10/19 11:39:43;;;;;;;6.75;4.85;;;18.50;99.90;;;;;;4877278;29;20211;-88
2022/10/19 11:42:57;;;;;;;8.43;5.85;;;18.50;99.90;;;;;;4848439;29;20200;-89
2022/10/19 11:45:46;;;;;;;9.73;6.22;;;18.50;99.90;;;;;;4839014;29;20189;-88
2022/10/19 11:48:50;;;;;;;8.30;6.15;;;18.50;99.90;;;;;;4843385;29;20195;-88
2022/10/19 11:51:19;;;;;;;9.18;6.10;;;18.50;99.90;;;;;;4843417;29;20196;-89
2022/10/19 11:53:50;;;;;;;8.38;6.00;;;18.50;99.90;;;;;;4858873;29;20207;-88
2022/10/19 11:56:37;;;;;;;11.75;6.60;;;18.60;99.90;;;;;;4845042;29;20208;-88
2022/10/19 11:59:09;;;;;;;11.02;6.63;;;18.60;99.90;;;;;;4859231;29;20271;-89
2022/10/19 12:01:41;;;;;;;8.02;5.75;;;18.60;99.90;;;;;;4859195;29;20185;-88
2022/10/19 12:04:19;;;;;;;7.85;5.43;;;18.70;99.90;;;;;;4843889;29;20185;-89
2022/10/19 12:07:06;;;;;;;8.68;5.55;;;18.70;99.90;;;;;;4858036;29;20218;-88
2022/10/19 12:09:59;;;;;;;5.72;4.35;;;18.80;99.90;;;;;;4853211;29;20188;-88
2022/10/19 12:12:34;;;;;;;5.93;4.43;;;18.80;99.90;;;;;;4858738;29;20208;-88
2022/10/19 12:15:10;;;;;;;4.32;3.50;;;18.90;99.90;;;;;;4831555;29;20194;-88
2022/10/19 12:17:40;;;;;;;5.18;4.20;;;18.80;99.90;;;;;;4859055;29;20183;-88
2022/10/19 12:20:20;;;;;;;4.65;3.50;;;18.80;99.90;;;;;;4852437;29;20317;-89
2022/10/19 12:23:14;;;;;;;5.65;3.95;;;18.80;99.90;;;;;;4862609;29;20204;-88
2022/10/19 12:25:44;;;;;;;4.65;3.60;;;18.80;99.90;;;;;;4862386;29;20177;-89
2022/10/19 12:28:27;;;;;;;6.47;4.05;;;19.00;99.90;;;;;;4865763;29;20187;-88
2022/10/19 12:30:55;;;;;;;4.57;3.47;;;19.10;99.90;;;;;;4876828;29;20189;-88
2022/10/19 12:33:35;;;;;;;5.60;3.22;;;19.10;99.90;;;;;;4847342;29;20217;-88
2022/10/19 12:36:18;;;;;;;5.40;3.83;;;19.10;99.90;;;;;;4866696;29;20185;-88
2022/10/19 12:38:56;;;;;;;6.15;3.85;;;19.00;99.90;;;;;;4863701;29;20287;-89
2022/10/19 12:41:29;;;;;;;4.32;3.55;;;19.00;99.90;;;;;;4847020;29;20192;-88
2022/10/19 12:44:34;;;;;;;5.35;3.78;;;19.00;99.90;;;;;;4846900;29;20307;-88
2022/10/19 12:47:21;;;;;;;6.18;3.90;;;19.10;99.90;;;;;;4846192;29;20196;-88
2022/10/19 12:49:53;;;;;;;5.97;3.67;;;19.10;99.90;;;;;;4846789;29;20173;-88
2022/10/19 12:52:47;;;;;;;6.60;3.95;;;19.10;99.90;;;;;;4861673;29;20208;-88
2022/10/19 12:55:24;;;;;;;6.43;3.70;;;19.10;99.90;;;;;;4861759;29;20185;-88
2022/10/19 12:58:19;;;;;;;5.43;4.40;;;19.10;99.90;;;;;;4861847;29;20193;-88
2022/10/19 13:01:23;;;;;;;6.45;4.30;;;19.10;99.90;;;;;;4841056;29;20393;-89
2022/10/19 13:04:04;;;;;;;4.82;3.83;;;19.10;99.90;;;;;;4855714;29;20184;-88
2022/10/19 13:06:33;;;;;;;4.45;3.53;;;19.10;99.90;;;;;;4846378;29;20188;-88